Time;durP1;ratioP1;P1;durP2;ratioP2;P2;SDS_P1;SDS_P2;PMS_P1;PMS_P2;Temp;Humidity;BMP_temperature;BMP_pressure;BME280_temperature;BME280_humidity;BME280_pressure;Samples;Min_cycle;Max_cycle;Signal;HPM_P1;HPM_P2
2023/12/16 00:00:59;;;;;;;18.58;4.18;;;;;;;-146.25;100.00;52619.63;2080199;28;37685;-71
2023/12/16 00:02:01;;;;;;;20.33;4.63;;;;;;;-146.25;100.00;52660.19;2080188;28;32246;-71
2023/12/16 00:03:10;;;;;;;19.05;4.15;;;;;;;-146.25;100.00;52670.31;2071703;28;38190;-72
2023/12/16 00:04:12;;;;;;;21.60;4.05;;;;;;;-146.25;100.00;52670.31;2072010;28;32006;-71
2023/12/16 00:05:14;;;;;;;18.77;4.10;;;;;;;-146.25;100.00;52652.06;2072033;28;29837;-73
2023/12/16 00:06:19;;;;;;;27.63;4.43;;;;;;;-146.25;100.00;52648.00;2071913;28;36583;-71
2023/12/16 00:07:21;;;;;;;15.18;3.63;;;;;;;-146.25;100.00;52633.81;2072462;28;20046;-72
2023/12/16 00:08:24;;;;;;;20.08;4.03;;;;;;;-146.25;100.00;52682.47;2072600;28;20160;-72
2023/12/16 00:09:26;;;;;;;20.52;4.13;;;;;;;-146.25;100.00;52676.41;2071945;28;34326;-73
2023/12/16 00:10:28;;;;;;;22.00;3.95;;;;;;;-146.25;100.00;52670.31;2071180;28;34964;-72
2023/12/16 00:11:30;;;;;;;12.48;3.20;;;;;;;-146.25;100.00;52660.19;2071926;28;37632;-72
2023/12/16 00:12:31;;;;;;;20.05;3.90;;;;;;;-146.25;100.00;52668.28;2073303;28;20041;-69
2023/12/16 00:13:34;;;;;;;18.27;3.80;;;;;;;-146.25;100.00;52676.41;2071909;28;38656;-72
2023/12/16 00:14:36;;;;;;;25.15;4.57;;;;;;;-146.25;100.00;52656.13;2072114;28;32269;-71
2023/12/16 00:15:38;;;;;;;20.70;4.32;;;;;;;-146.25;100.00;52648.00;2072302;28;20137;-72
2023/12/16 00:16:46;;;;;;;17.80;3.88;;;;;;;-146.25;100.00;52690.59;2071664;28;35882;-72
2023/12/16 00:17:48;;;;;;;18.98;4.32;;;;;;;-146.25;100.00;52676.41;2072298;28;31753;-72
2023/12/16 00:18:50;;;;;;;16.75;4.13;;;;;;;-146.25;100.00;52672.34;2072774;28;20046;-71
2023/12/16 00:19:51;;;;;;;22.50;4.47;;;;;;;-146.25;100.00;52660.19;2071690;28;35053;-72
2023/12/16 00:20:53;;;;;;;28.92;4.93;;;;;;;-146.25;100.00;52643.97;2072119;28;37018;-72
2023/12/16 00:21:55;;;;;;;16.02;3.58;;;;;;;-146.25;100.00;52668.28;2072356;28;20202;-71
2023/12/16 00:22:58;;;;;;;14.10;4.03;;;;;;;-146.25;100.00;52652.06;2072069;28;35420;-71
2023/12/16 00:23:59;;;;;;;17.00;3.38;;;;;;;-146.25;100.00;52680.47;2071699;28;37256;-72
2023/12/16 00:25:04;;;;;;;21.85;4.13;;;;;;;-146.25;100.00;52708.84;2071234;28;20094;-70
2023/12/16 00:26:06;;;;;;;17.33;3.92;;;;;;;-146.25;100.00;52637.88;2070992;28;39153;-72
2023/12/16 00:27:07;;;;;;;15.77;3.75;;;;;;;-146.25;100.00;52641.94;2071995;28;34366;-72
2023/12/16 00:28:09;;;;;;;15.57;3.58;;;;;;;-146.25;100.00;52684.50;2071725;28;33093;-72
2023/12/16 00:29:11;;;;;;;20.23;4.30;;;;;;;-146.25;100.00;52712.91;2071642;28;37121;-69
2023/12/16 00:30:14;;;;;;;20.13;4.72;;;;;;;-146.25;100.00;52684.50;2071745;28;36782;-71
2023/12/16 00:31:15;;;;;;;20.48;4.18;;;;;;;-146.25;100.00;52611.50;2072432;28;20883;-72
2023/12/16 00:32:18;;;;;;;17.55;3.83;;;;;;;-146.25;100.00;52670.31;2071893;28;36891;-71
2023/12/16 00:33:19;;;;;;;17.92;3.53;;;;;;;-146.25;100.00;52666.25;2072007;28;33185;-72
2023/12/16 00:34:21;;;;;;;16.30;3.63;;;;;;;-146.25;100.00;52704.78;2072124;28;37337;-73
2023/12/16 00:35:26;;;;;;;20.95;4.68;;;;;;;-146.25;100.00;52658.16;2063340;28;33318;-72
2023/12/16 00:36:30;;;;;;;18.05;3.78;;;;;;;-146.25;100.00;52682.47;2063745;28;33146;-74
2023/12/16 00:37:33;;;;;;;19.27;3.80;;;;;;;-146.25;100.00;52660.19;2071707;28;36715;-71
2023/12/16 00:38:35;;;;;;;22.42;4.47;;;;;;;-146.25;100.00;52658.16;2071956;28;33723;-72
2023/12/16 00:39:36;;;;;;;17.30;4.30;;;;;;;-146.25;100.00;52662.22;2072239;28;20891;-72
2023/12/16 00:40:38;;;;;;;12.93;3.30;;;;;;;-146.25;100.00;52680.47;2078725;28;39163;-72
2023/12/16 00:41:41;;;;;;;19.25;4.15;;;;;;;-146.25;100.00;52668.28;2080006;28;31678;-72
2023/12/16 00:42:43;;;;;;;19.70;4.32;;;;;;;-146.25;100.00;52672.34;2079939;28;34269;-71
2023/12/16 00:43:47;;;;;;;14.00;3.50;;;;;;;-146.25;100.00;52627.75;2080151;28;36086;-71
2023/12/16 00:44:51;;;;;;;24.30;4.03;;;;;;;-146.25;100.00;52664.22;2079914;28;34618;-72
2023/12/16 00:45:53;;;;;;;17.38;4.03;;;;;;;-146.25;100.00;52682.47;2079810;28;37980;-71
2023/12/16 00:46:55;;;;;;;25.08;4.88;;;;;;;-146.25;100.00;52670.31;2079922;28;32526;-72
2023/12/16 00:47:56;;;;;;;16.33;3.55;;;;;;;-146.25;100.00;52621.66;2080702;28;20057;-72
2023/12/16 00:48:58;;;;;;;18.17;3.65;;;;;;;-146.25;100.00;52643.97;2079806;28;38928;-72
2023/12/16 00:50:00;;;;;;;14.05;3.72;;;;;;;-146.25;100.00;52654.09;2080004;28;34069;-72
2023/12/16 00:51:02;;;;;;;19.48;4.13;;;;;;;-146.25;100.00;52666.25;2079889;28;35782;-72
2023/12/16 00:52:09;;;;;;;15.77;3.97;;;;;;;-146.25;100.00;52690.59;2079968;28;29831;-71
2023/12/16 00:53:12;;;;;;;16.02;3.58;;;;;;;-146.25;100.00;52652.06;2071476;28;20156;-72
2023/12/16 00:54:14;;;;;;;15.20;4.07;;;;;;;-146.25;100.00;52688.56;2072090;28;20034;-71
2023/12/16 00:55:16;;;;;;;21.35;4.43;;;;;;;-146.25;100.00;52694.66;2071380;28;37048;-71
2023/12/16 00:56:18;;;;;;;15.35;3.95;;;;;;;-146.25;100.00;52658.16;2071808;28;38082;-71
2023/12/16 00:57:22;;;;;;;15.52;3.70;;;;;;;-146.25;100.00;52662.22;2072821;28;20096;-72
2023/12/16 00:58:24;;;;;;;11.75;3.72;;;;;;;-146.25;100.00;52692.63;2071898;28;34510;-72
2023/12/16 00:59:26;;;;;;;19.85;4.18;;;;;;;-146.25;100.00;52664.22;2071357;28;35933;-72
2023/12/16 01:00:28;;;;;;;20.38;4.20;;;;;;;-146.25;100.00;52700.72;2072114;28;25794;-72
2023/12/16 01:01:29;;;;;;;14.85;3.47;;;;;;;-146.25;100.00;52678.44;2071602;28;36976;-72
2023/12/16 01:02:32;;;;;;;14.60;3.75;;;;;;;-146.25;100.00;52729.13;2072563;28;20034;-70
2023/12/16 01:03:34;;;;;;;14.40;3.72;;;;;;;-146.25;100.00;52654.09;2062995;28;35126;-72
2023/12/16 01:04:36;;;;;;;20.80;3.78;;;;;;;-146.25;100.00;52684.50;2063246;28;36369;-70
2023/12/16 01:05:38;;;;;;;20.13;4.13;;;;;;;-146.25;100.00;52680.47;2072301;28;20143;-72
2023/12/16 01:06:40;;;;;;;17.15;3.45;;;;;;;-146.25;100.00;52676.41;2071512;28;35948;-71
2023/12/16 01:07:42;;;;;;;18.98;3.67;;;;;;;-146.25;100.00;52666.25;2071237;28;35232;-72
2023/12/16 01:08:43;;;;;;;15.65;3.70;;;;;;;-146.25;100.00;52650.03;2071991;28;32777;-72
2023/12/16 01:09:45;;;;;;;14.23;3.60;;;;;;;-146.25;100.00;52631.78;2071405;28;38120;-72
2023/12/16 01:10:47;;;;;;;14.00;3.50;;;;;;;-146.25;100.00;52654.09;2072324;28;20042;-71
2023/12/16 01:11:49;;;;;;;16.17;3.47;;;;;;;-146.25;100.00;52670.31;2071979;28;26603;-72
2023/12/16 01:12:50;;;;;;;13.13;3.50;;;;;;;-146.25;100.00;52631.78;2071896;28;33497;-72
2023/12/16 01:13:52;;;;;;;15.23;3.17;;;;;;;-146.25;100.00;52692.63;2072359;28;20754;-71
2023/12/16 01:14:54;;;;;;;19.25;4.03;;;;;;;-146.25;100.00;52662.22;2071471;28;32478;-72
2023/12/16 01:15:56;;;;;;;10.20;3.25;;;;;;;-146.25;100.00;52656.13;2071868;28;21542;-71
2023/12/16 01:17:00;;;;;;;14.85;3.05;;;;;;;-146.25;100.00;52676.41;2063707;28;21029;-71
2023/12/16 01:18:02;;;;;;;17.08;3.92;;;;;;;-146.25;100.00;52648.00;2063337;28;30448;-71
2023/12/16 01:19:04;;;;;;;15.48;3.55;;;;;;;-146.25;100.00;52686.53;2072145;28;30942;-72
2023/12/16 01:20:09;;;;;;;10.38;3.33;;;;;;;-146.25;100.00;52678.44;2071416;28;26959;-72
2023/12/16 01:21:12;;;;;;;17.25;3.00;;;;;;;-146.25;100.00;52656.13;2071663;28;32497;-71
2023/12/16 01:22:14;;;;;;;14.55;3.53;;;;;;;-146.25;100.00;52678.44;2071601;28;30392;-72
2023/12/16 01:23:16;;;;;;;13.65;3.10;;;;;;;-146.25;100.00;52633.81;2071520;28;29764;-72
2023/12/16 01:24:17;;;;;;;11.00;3.70;;;;;;;-146.25;100.00;52668.28;2071594;28;35817;-72
2023/12/16 01:25:20;;;;;;;15.73;3.08;;;;;;;-146.25;100.00;52706.81;2071963;28;20039;-72
2023/12/16 01:26:21;;;;;;;11.23;2.92;;;;;;;-146.25;100.00;52672.34;2071554;28;33612;-72
2023/12/16 01:27:24;;;;;;;13.35;3.03;;;;;;;-146.25;100.00;52680.47;2071725;28;35539;-71
2023/12/16 01:28:26;;;;;;;12.82;3.13;;;;;;;-146.25;100.00;52660.19;2071381;28;35342;-72
2023/12/16 01:29:31;;;;;;;10.95;3.05;;;;;;;-146.25;100.00;52676.41;2072230;28;20432;-70
2023/12/16 01:30:33;;;;;;;14.10;2.78;;;;;;;-146.25;100.00;52643.97;2062871;28;33183;-72
2023/12/16 01:31:35;;;;;;;13.82;3.10;;;;;;;-146.25;100.00;52698.72;2063808;28;20098;-72
2023/12/16 01:32:37;;;;;;;13.27;2.72;;;;;;;-146.25;100.00;52652.06;2071498;28;35301;-72
2023/12/16 01:33:39;;;;;;;15.75;2.95;;;;;;;-146.25;100.00;52676.41;2071493;28;38494;-72
2023/12/16 01:34:41;;;;;;;16.25;3.13;;;;;;;-146.25;100.00;52684.50;2071370;28;31731;-72
2023/12/16 01:35:42;;;;;;;14.55;3.10;;;;;;;-146.25;100.00;52684.50;2071633;28;34758;-72
2023/12/16 01:36:44;;;;;;;18.15;2.88;;;;;;;-146.25;100.00;52674.38;2071445;28;34698;-72
2023/12/16 01:37:48;;;;;;;15.32;2.58;;;;;;;-146.25;100.00;52668.28;2071459;28;32859;-70
2023/12/16 01:38:50;;;;;;;13.05;2.55;;;;;;;-146.25;100.00;52680.47;2071111;28;39812;-72
2023/12/16 01:39:52;;;;;;;12.02;2.45;;;;;;;-146.25;100.00;52680.47;2072169;28;20073;-71
2023/12/16 01:40:54;;;;;;;12.55;2.20;;;;;;;-146.25;100.00;52686.53;2071477;28;36441;-72
2023/12/16 01:41:56;;;;;;;10.32;1.92;;;;;;;-146.25;100.00;52674.38;2062916;28;37068;-71
2023/12/16 01:43:03;;;;;;;13.30;2.17;;;;;;;-146.25;100.00;52690.59;2063208;28;27543;-72
2023/12/16 01:44:05;;;;;;;12.23;2.45;;;;;;;-146.25;100.00;52692.63;2071735;28;38556;-72
2023/12/16 01:45:07;;;;;;;13.48;2.30;;;;;;;-146.25;100.00;52684.50;2071718;28;20074;-72
2023/12/16 01:46:10;;;;;;;9.93;2.80;;;;;;;-146.25;100.00;52676.41;2071534;28;36796;-72
2023/12/16 01:47:12;;;;;;;13.73;2.30;;;;;;;-146.25;100.00;52668.28;2071156;28;35034;-71
2023/12/16 01:48:16;;;;;;;13.05;2.45;;;;;;;-146.25;100.00;52662.22;2072290;28;20036;-71
2023/12/16 01:49:18;;;;;;;16.02;2.35;;;;;;;-146.25;100.00;52656.13;2071125;28;36072;-71
2023/12/16 01:50:20;;;;;;;12.50;2.80;;;;;;;-146.25;100.00;52680.47;2071140;28;39013;-72
2023/12/16 01:51:24;;;;;;;11.75;2.92;;;;;;;-146.25;100.00;52708.84;2071878;28;20050;-72
2023/12/16 01:52:28;;;;;;;12.75;2.47;;;;;;;-146.25;100.00;52704.78;2062421;28;38483;-72
2023/12/16 01:53:32;;;;;;;11.18;2.40;;;;;;;-146.25;100.00;52648.00;2063197;28;33710;-73
2023/12/16 01:54:34;;;;;;;11.80;1.67;;;;;;;-146.25;100.00;52672.34;2071777;28;25169;-73
2023/12/16 01:55:41;;;;;;;12.98;2.22;;;;;;;-146.25;100.00;52674.38;2071547;28;20900;-72
2023/12/16 01:56:45;;;;;;;10.98;2.10;;;;;;;-146.25;100.00;52698.72;2063346;28;34214;-72
2023/12/16 01:57:50;;;;;;;11.00;2.05;;;;;;;-146.25;100.00;52656.13;2055240;28;36523;-72
2023/12/16 01:58:54;;;;;;;17.63;2.17;;;;;;;-146.25;100.00;52678.44;2056390;28;20047;-71
2023/12/16 01:59:56;;;;;;;11.38;1.90;;;;;;;-146.25;100.00;52696.69;2062530;28;32351;-72
2023/12/16 02:00:58;;;;;;;9.27;1.83;;;;;;;-146.25;100.00;52688.56;2071352;28;38326;-72
2023/12/16 02:02:00;;;;;;;10.50;2.05;;;;;;;-146.25;100.00;52668.28;2072079;28;20084;-72
2023/12/16 02:03:05;;;;;;;8.30;1.70;;;;;;;-146.25;100.00;52678.44;2062982;28;20087;-72
2023/12/16 02:04:07;;;;;;;8.95;1.95;;;;;;;-146.25;100.00;52676.41;2057127;28;32648;-73
2023/12/16 02:05:09;;;;;;;10.43;1.85;;;;;;;-146.25;100.00;52666.25;2056317;28;34590;-71
2023/12/16 02:06:11;;;;;;;13.13;2.13;;;;;;;-146.25;100.00;52664.22;2064152;28;36638;-72
2023/12/16 02:07:13;;;;;;;14.23;2.25;;;;;;;-146.25;100.00;52660.19;2072828;28;33470;-70
2023/12/16 02:08:15;;;;;;;9.70;1.90;;;;;;;-146.25;100.00;52660.19;2072795;28;34953;-72
2023/12/16 02:09:19;;;;;;;12.52;2.03;;;;;;;-146.25;100.00;52686.53;2072631;28;32867;-71
2023/12/16 02:10:21;;;;;;;10.48;1.67;;;;;;;-146.25;100.00;52690.59;2073155;28;20901;-73
2023/12/16 02:11:23;;;;;;;11.68;2.22;;;;;;;-146.25;100.00;52674.38;2072905;28;27176;-72
2023/12/16 02:12:28;;;;;;;11.75;2.50;;;;;;;-146.25;100.00;52733.19;2072724;28;33219;-72
2023/12/16 02:13:29;;;;;;;12.95;1.90;;;;;;;-146.25;100.00;52676.41;2072861;28;20049;-72
2023/12/16 02:14:32;;;;;;;16.85;2.03;;;;;;;-146.25;100.00;52702.75;2071986;28;36367;-72
2023/12/16 02:15:34;;;;;;;10.43;1.75;;;;;;;-146.25;100.00;52692.63;2063720;28;34262;-71
2023/12/16 02:16:36;;;;;;;12.15;2.17;;;;;;;-146.25;100.00;52716.97;2064222;28;34676;-72
2023/12/16 02:17:38;;;;;;;11.15;2.20;;;;;;;-146.25;100.00;52676.41;2064501;28;22655;-72
2023/12/16 02:18:40;;;;;;;10.63;1.80;;;;;;;-146.25;100.00;52690.59;2064739;28;20097;-72
2023/12/16 02:19:46;;;;;;;8.88;1.73;;;;;;;-146.25;100.00;52690.59;2072759;28;37576;-71
2023/12/16 02:20:48;;;;;;;9.18;1.63;;;;;;;-146.25;100.00;52650.03;2072718;28;34238;-72
2023/12/16 02:21:49;;;;;;;7.68;1.77;;;;;;;-146.25;100.00;52682.47;2063557;28;36207;-73
2023/12/16 02:22:52;;;;;;;10.43;1.92;;;;;;;-146.25;100.00;52658.16;2063915;28;33627;-73
2023/12/16 02:23:54;;;;;;;11.45;1.77;;;;;;;-146.25;100.00;52676.41;2064553;28;20138;-72
2023/12/16 02:24:57;;;;;;;13.15;1.90;;;;;;;-146.25;100.00;52712.91;2064119;28;37351;-72
2023/12/16 02:26:00;;;;;;;10.68;2.10;;;;;;;-146.25;100.00;52700.72;2072988;28;32811;-72
2023/12/16 02:27:02;;;;;;;10.00;2.03;;;;;;;-146.25;100.00;52662.22;2072410;28;32988;-72
2023/12/16 02:28:03;;;;;;;11.20;2.13;;;;;;;-146.25;100.00;52704.78;2072771;28;34977;-72
2023/12/16 02:29:05;;;;;;;8.38;1.48;;;;;;;-146.25;100.00;52660.19;2072939;28;20823;-72
2023/12/16 02:30:09;;;;;;;13.95;2.00;;;;;;;-146.25;100.00;52708.84;2072223;28;37373;-71
2023/12/16 02:31:12;;;;;;;11.43;2.00;;;;;;;-146.25;100.00;52690.59;2072585;28;34670;-72
2023/12/16 02:32:15;;;;;;;10.15;1.45;;;;;;;-146.25;100.00;52656.13;2072769;28;32876;-72
2023/12/16 02:33:17;;;;;;;13.82;2.10;;;;;;;-146.25;100.00;52696.69;2072254;28;32709;-72
2023/12/16 02:34:19;;;;;;;11.02;2.00;;;;;;;-146.25;100.00;52712.91;2073521;28;20905;-72
2023/12/16 02:35:21;;;;;;;11.23;2.05;;;;;;;-146.25;100.00;52664.22;2072246;28;37495;-72
2023/12/16 02:36:25;;;;;;;13.57;1.85;;;;;;;-146.25;100.00;52666.25;2072634;28;33943;-71
2023/12/16 02:37:29;;;;;;;8.18;1.65;;;;;;;-146.25;100.00;52668.28;2072525;28;35613;-72
2023/12/16 02:38:31;;;;;;;15.60;2.25;;;;;;;-146.25;100.00;52645.97;2072566;28;35973;-70
2023/12/16 02:39:35;;;;;;;10.10;1.45;;;;;;;-146.25;100.00;52680.47;2073091;28;20050;-72
2023/12/16 02:40:42;;;;;;;10.07;1.77;;;;;;;-146.25;100.00;52710.88;2072359;28;38543;-71
2023/12/16 02:41:43;;;;;;;9.27;1.80;;;;;;;-146.25;100.00;52684.50;2073023;28;29265;-72
2023/12/16 02:42:45;;;;;;;10.27;1.70;;;;;;;-146.25;100.00;52652.06;2072494;28;34363;-72
2023/12/16 02:43:49;;;;;;;11.23;1.60;;;;;;;-146.25;100.00;52698.72;2072601;28;36626;-72
2023/12/16 02:44:51;;;;;;;11.02;1.40;;;;;;;-146.25;100.00;52700.72;2073073;28;20050;-72
2023/12/16 02:45:53;;;;;;;10.02;1.50;;;;;;;-146.25;100.00;52688.56;2072735;28;26746;-71
2023/12/16 02:46:54;;;;;;;12.00;1.65;;;;;;;-146.25;100.00;52721.00;2072622;28;31995;-72
2023/12/16 02:47:56;;;;;;;9.20;1.50;;;;;;;-146.25;100.00;52696.69;2073419;28;20046;-72
2023/12/16 02:48:58;;;;;;;10.70;1.92;;;;;;;-146.25;100.00;52668.28;2072749;28;31268;-72
2023/12/16 02:50:00;;;;;;;6.20;1.20;;;;;;;-146.25;100.00;52662.22;2072356;28;32893;-72
2023/12/16 02:51:02;;;;;;;8.43;1.75;;;;;;;-146.25;100.00;52684.50;2073164;28;20053;-71
2023/12/16 02:52:04;;;;;;;10.85;1.92;;;;;;;-146.25;100.00;52688.56;2072570;28;36775;-72
2023/12/16 02:53:07;;;;;;;13.43;1.83;;;;;;;-146.25;100.00;52704.78;2072636;28;35401;-71
2023/12/16 02:54:09;;;;;;;7.22;1.50;;;;;;;-146.25;100.00;52688.56;2072585;28;36750;-71
2023/12/16 02:55:11;;;;;;;12.50;1.63;;;;;;;-146.25;100.00;52645.97;2072516;28;35924;-72
2023/12/16 02:56:13;;;;;;;7.95;1.58;;;;;;;-146.25;100.00;52712.91;2072973;28;20043;-71
2023/12/16 02:57:15;;;;;;;9.20;1.35;;;;;;;-146.25;100.00;52662.22;2072530;28;36395;-71
2023/12/16 02:58:16;;;;;;;9.82;1.58;;;;;;;-146.25;100.00;52676.41;2072334;28;33917;-72
2023/12/16 02:59:21;;;;;;;9.20;1.67;;;;;;;-146.25;100.00;52684.50;2072700;28;32238;-71
2023/12/16 03:00:22;;;;;;;11.90;1.70;;;;;;;-146.25;100.00;52676.41;2073257;28;37893;-72
2023/12/16 03:01:24;;;;;;;10.80;1.50;;;;;;;-146.25;100.00;52686.53;2081378;28;20046;-71
2023/12/16 03:02:28;;;;;;;8.43;1.30;;;;;;;-146.25;100.00;52696.69;2080481;28;35179;-72
2023/12/16 03:03:30;;;;;;;9.93;1.50;;;;;;;-146.25;100.00;52684.50;2080504;28;33259;-72
2023/12/16 03:04:33;;;;;;;12.27;1.60;;;;;;;-146.25;100.00;52714.94;2080520;28;32646;-72
2023/12/16 03:05:35;;;;;;;11.02;1.65;;;;;;;-146.25;100.00;52743.31;2080603;28;35181;-72
2023/12/16 03:06:45;;;;;;;8.32;1.15;;;;;;;-146.25;100.00;52731.16;2081014;28;20050;-71
2023/12/16 03:07:47;;;;;;;9.75;1.40;;;;;;;-146.25;100.00;52700.72;2080898;28;36969;-72
2023/12/16 03:08:51;;;;;;;8.95;1.40;;;;;;;-146.25;100.00;52712.91;2080689;28;36138;-72
2023/12/16 03:09:52;;;;;;;12.13;1.88;;;;;;;-146.25;100.00;52672.34;2080337;28;33081;-72
2023/12/16 03:10:54;;;;;;;11.70;1.77;;;;;;;-146.25;100.00;52684.50;2080800;28;35471;-71
2023/12/16 03:12:00;;;;;;;8.85;1.15;;;;;;;-146.25;100.00;52658.16;2080949;28;20914;-71
2023/12/16 03:13:02;;;;;;;7.35;1.55;;;;;;;-146.25;100.00;52716.97;2080935;28;24464;-72
2023/12/16 03:14:04;;;;;;;10.93;1.38;;;;;;;-146.25;100.00;52672.34;2080952;28;27877;-72
2023/12/16 03:15:07;;;;;;;8.52;1.55;;;;;;;-146.25;100.00;52729.13;2080686;28;20083;-71
2023/12/16 03:16:10;;;;;;;13.68;1.63;;;;;;;-146.25;100.00;52672.34;2081211;28;30768;-72
2023/12/16 03:17:12;;;;;;;11.95;2.10;;;;;;;-146.25;100.00;52708.84;2071401;28;24255;-72
2023/12/16 03:18:14;;;;;;;9.10;1.40;;;;;;;-146.25;100.00;52668.28;2072403;28;20034;-72
2023/12/16 03:19:18;;;;;;;9.73;1.48;;;;;;;-146.25;100.00;52706.81;2080225;28;28232;-71
2023/12/16 03:20:24;;;;;;;9.13;1.48;;;;;;;-146.25;100.00;52678.44;2080454;28;34144;-72
2023/12/16 03:21:27;;;;;;;13.10;1.80;;;;;;;-146.25;100.00;52648.00;2080696;28;34459;-73
2023/12/16 03:22:28;;;;;;;8.88;1.77;;;;;;;-146.25;100.00;52676.41;2080558;28;34786;-73
2023/12/16 03:23:30;;;;;;;8.82;1.40;;;;;;;-146.25;100.00;52678.44;2080463;28;38305;-72
2023/12/16 03:24:32;;;;;;;9.70;1.60;;;;;;;-146.25;100.00;52674.38;2078806;28;33028;-73
2023/12/16 03:25:37;;;;;;;13.20;1.80;;;;;;;-146.25;100.00;52718.97;2072257;28;35800;-72
2023/12/16 03:26:39;;;;;;;17.20;1.48;;;;;;;-146.25;100.00;52676.41;2072915;28;20157;-72
2023/12/16 03:27:42;;;;;;;9.75;1.65;;;;;;;-146.25;100.00;52700.72;2072167;28;34550;-72
2023/12/16 03:28:44;;;;;;;11.23;2.15;;;;;;;-146.25;100.00;52692.63;2072262;28;31942;-72
2023/12/16 03:29:47;;;;;;;13.90;1.75;;;;;;;-146.25;100.00;52656.13;2072050;28;34060;-72
2023/12/16 03:30:48;;;;;;;5.85;1.38;;;;;;;-146.25;100.00;52690.59;2072237;28;37914;-73
2023/12/16 03:31:50;;;;;;;11.45;1.88;;;;;;;-146.25;100.00;52692.63;2072992;28;20080;-73
2023/12/16 03:32:52;;;;;;;10.93;1.50;;;;;;;-146.25;100.00;52652.06;2072480;28;36166;-72
2023/12/16 03:33:54;;;;;;;8.70;1.52;;;;;;;-146.25;100.00;52668.28;2072309;28;33929;-72
2023/12/16 03:34:56;;;;;;;12.30;1.50;;;;;;;-146.25;100.00;52678.44;2071952;28;33708;-72
2023/12/16 03:36:00;;;;;;;7.90;1.50;;;;;;;-146.25;100.00;52684.50;2072304;28;36242;-73
2023/12/16 03:37:05;;;;;;;11.75;1.60;;;;;;;-146.25;100.00;52629.75;2071491;28;36090;-72
2023/12/16 03:38:07;;;;;;;8.10;1.25;;;;;;;-146.25;100.00;52686.53;2072865;28;20940;-72
2023/12/16 03:39:09;;;;;;;10.30;1.65;;;;;;;-146.25;100.00;52698.72;2072265;28;35414;-72
2023/12/16 03:40:11;;;;;;;13.40;1.88;;;;;;;-146.25;100.00;52666.25;2072182;28;34231;-73
2023/12/16 03:41:12;;;;;;;13.80;1.67;;;;;;;-146.25;100.00;52688.56;2072590;28;20161;-72
2023/12/16 03:42:14;;;;;;;12.57;1.52;;;;;;;-146.25;100.00;52710.88;2063333;28;36830;-72
2023/12/16 03:43:17;;;;;;;12.70;1.38;;;;;;;-146.25;100.00;52682.47;2063595;28;35890;-72
2023/12/16 03:44:19;;;;;;;13.60;1.70;;;;;;;-146.25;100.00;52668.28;2072867;28;20042;-72
2023/12/16 03:45:21;;;;;;;11.88;1.48;;;;;;;-146.25;100.00;52694.66;2071923;28;35865;-72
2023/12/16 03:46:23;;;;;;;10.35;1.70;;;;;;;-146.25;100.00;52686.53;2072394;28;33742;-72
2023/12/16 03:47:25;;;;;;;12.02;1.50;;;;;;;-146.25;100.00;52698.72;2072920;28;20109;-72
2023/12/16 03:48:26;;;;;;;10.25;1.55;;;;;;;-146.25;100.00;52668.28;2071771;28;36723;-72
2023/12/16 03:49:29;;;;;;;8.30;1.70;;;;;;;-146.25;100.00;52706.81;2072213;28;34690;-72
2023/12/16 03:50:31;;;;;;;13.18;1.60;;;;;;;-146.25;100.00;52660.19;2072871;28;20046;-72
2023/12/16 03:51:33;;;;;;;11.05;1.67;;;;;;;-146.25;100.00;52710.88;2073076;28;20046;-72
2023/12/16 03:52:35;;;;;;;10.63;1.83;;;;;;;-146.25;100.00;52660.19;2072044;28;33294;-72
2023/12/16 03:53:37;;;;;;;11.32;1.40;;;;;;;-146.25;100.00;52662.22;2063386;28;28416;-72
2023/12/16 03:54:39;;;;;;;10.98;1.40;;;;;;;-146.25;100.00;52712.91;2063914;28;37812;-72
2023/12/16 03:55:40;;;;;;;8.93;1.92;;;;;;;-146.25;100.00;52668.28;2072103;28;34898;-72
2023/12/16 03:56:42;;;;;;;10.35;1.40;;;;;;;-146.25;100.00;52694.66;2071411;28;33065;-72
2023/12/16 03:57:45;;;;;;;11.80;2.10;;;;;;;-146.25;100.00;52656.13;2070453;28;20049;-72
2023/12/16 03:58:47;;;;;;;10.23;1.88;;;;;;;-146.25;100.00;52682.47;2072606;28;20172;-72
2023/12/16 03:59:49;;;;;;;13.98;1.75;;;;;;;-146.25;100.00;52710.88;2063249;28;35943;-72
2023/12/16 04:00:50;;;;;;;15.07;1.88;;;;;;;-146.25;100.00;52710.88;2063043;28;35193;-72
2023/12/16 04:01:52;;;;;;;7.10;1.90;;;;;;;-146.25;100.00;52670.31;2071306;28;32093;-71
2023/12/16 04:02:55;;;;;;;10.45;1.95;;;;;;;-146.25;100.00;52672.34;2071665;28;35865;-71
2023/12/16 04:03:57;;;;;;;13.30;1.85;;;;;;;-146.25;100.00;52672.34;2071927;28;30830;-71
2023/12/16 04:04:59;;;;;;;11.75;2.15;;;;;;;-146.25;100.00;52700.72;2072023;28;35804;-72
2023/12/16 04:06:01;;;;;;;12.85;1.67;;;;;;;-146.25;100.00;52692.63;2072123;28;35896;-72
2023/12/16 04:07:02;;;;;;;12.10;2.10;;;;;;;-146.25;100.00;52676.41;2072148;28;31951;-72
2023/12/16 04:08:04;;;;;;;11.45;2.63;;;;;;;-146.25;100.00;52639.91;2072128;28;35464;-72
2023/12/16 04:09:09;;;;;;;11.10;2.08;;;;;;;-146.25;100.00;52727.09;2064071;28;20050;-72
2023/12/16 04:10:11;;;;;;;14.90;2.35;;;;;;;-146.25;100.00;52641.94;2063580;28;35795;-71
2023/12/16 04:11:13;;;;;;;12.73;2.13;;;;;;;-146.25;100.00;52698.72;2071989;28;36291;-72
2023/12/16 04:12:15;;;;;;;11.35;2.03;;;;;;;-146.25;100.00;52708.84;2071867;28;31351;-72
2023/12/16 04:13:16;;;;;;;16.90;2.30;;;;;;;-146.25;100.00;52700.72;2071953;28;37607;-72
2023/12/16 04:14:18;;;;;;;9.38;2.30;;;;;;;-146.25;100.00;52690.59;2072676;28;20042;-71
2023/12/16 04:15:20;;;;;;;10.10;2.47;;;;;;;-146.25;100.00;52643.97;2071911;28;35835;-72
2023/12/16 04:16:22;;;;;;;12.88;2.20;;;;;;;-146.25;100.00;52670.31;2071858;28;36204;-71
2023/12/16 04:17:26;;;;;;;8.38;2.63;;;;;;;-146.25;100.00;52704.78;2072455;28;32932;-72
2023/12/16 04:18:27;;;;;;;10.10;2.45;;;;;;;-146.25;100.00;52662.22;2071706;28;37171;-72
2023/12/16 04:19:32;;;;;;;9.57;2.03;;;;;;;-146.25;100.00;52688.56;2063794;28;20043;-72
2023/12/16 04:20:34;;;;;;;7.60;2.20;;;;;;;-146.25;100.00;52690.59;2063932;28;28864;-70
2023/12/16 04:21:37;;;;;;;9.38;2.47;;;;;;;-146.25;100.00;52698.72;2071683;28;33607;-72
2023/12/16 04:22:39;;;;;;;12.82;2.22;;;;;;;-146.25;100.00;52688.56;2072071;28;33360;-71
2023/12/16 04:23:41;;;;;;;9.65;2.60;;;;;;;-146.25;100.00;52702.75;2071971;28;28816;-72
2023/12/16 04:24:44;;;;;;;13.60;2.92;;;;;;;-146.25;100.00;52690.59;2072656;28;20030;-72
2023/12/16 04:25:46;;;;;;;9.82;2.30;;;;;;;-146.25;100.00;52666.25;2071505;28;36691;-72
2023/12/16 04:26:47;;;;;;;12.45;2.28;;;;;;;-146.25;100.00;52652.06;2071211;28;33345;-72
2023/12/16 04:27:49;;;;;;;12.95;2.65;;;;;;;-146.25;100.00;52682.47;2071958;28;34487;-72
2023/12/16 04:28:53;;;;;;;15.48;2.85;;;;;;;-146.25;100.00;52682.47;2071849;28;37242;-71
2023/12/16 04:29:54;;;;;;;14.05;2.72;;;;;;;-146.25;100.00;52660.19;2072262;28;20046;-71
2023/12/16 04:30:56;;;;;;;12.18;2.33;;;;;;;-146.25;100.00;52674.38;2071940;28;33639;-71
2023/12/16 04:31:58;;;;;;;9.85;2.58;;;;;;;-146.25;100.00;52662.22;2072044;28;32050;-72
2023/12/16 04:33:00;;;;;;;13.32;2.17;;;;;;;-146.25;100.00;52733.19;2071964;28;35415;-72
2023/12/16 04:34:02;;;;;;;10.43;2.28;;;;;;;-146.25;100.00;52654.09;2071421;28;35455;-72
2023/12/16 04:35:06;;;;;;;8.40;1.88;;;;;;;-146.25;100.00;52696.69;2071940;28;35739;-73
2023/12/16 04:36:18;;;;;;;12.15;2.25;;;;;;;-146.25;100.00;52686.53;2072110;28;34023;-72
2023/12/16 04:37:20;;;;;;;11.43;2.70;;;;;;;-146.25;100.00;52686.53;2063179;28;34548;-72
2023/12/16 04:38:21;;;;;;;10.85;2.28;;;;;;;-146.25;100.00;52712.91;2064420;28;20039;-72
2023/12/16 04:39:23;;;;;;;13.38;2.55;;;;;;;-146.25;100.00;52652.06;2072317;28;35956;-72
2023/12/16 04:40:25;;;;;;;10.68;2.33;;;;;;;-146.25;100.00;52692.63;2063341;28;32080;-72
2023/12/16 04:41:27;;;;;;;11.05;2.25;;;;;;;-146.25;100.00;52680.47;2062962;28;34455;-72